sensor_id;sensor_type;location;lat;lon;timestamp;temperature;humidity
40516;DHT22;26216;53.724;9.898;2022-10-16T00:01:30;15.80;99.60
40516;DHT22;26216;53.724;9.898;2022-10-16T00:03:58;15.80;99.60
40516;DHT22;26216;53.724;9.898;2022-10-16T00:06:24;15.80;99.60
40516;DHT22;26216;53.724;9.898;2022-10-16T00:08:51;15.80;99.70
40516;DHT22;26216;53.724;9.898;2022-10-16T00:11:19;15.80;99.70
40516;DHT22;26216;53.724;9.898;2022-10-16T00:13:48;15.80;99.70
40516;DHT22;26216;53.724;9.898;2022-10-16T00:16:15;15.70;99.60
40516;DHT22;26216;53.724;9.898;2022-10-16T00:18:41;15.80;99.70
40516;DHT22;26216;53.724;9.898;2022-10-16T00:21:10;15.80;99.80
40516;DHT22;26216;53.724;9.898;2022-10-16T00:23:36;15.80;99.80
40516;DHT22;26216;53.724;9.898;2022-10-16T00:26:07;15.70;99.80
40516;DHT22;26216;53.724;9.898;2022-10-16T00:28:33;15.70;99.70
40516;DHT22;26216;53.724;9.898;2022-10-16T00:31:05;15.70;99.70
40516;DHT22;26216;53.724;9.898;2022-10-16T00:33:32;15.70;99.70
40516;DHT22;26216;53.724;9.898;2022-10-16T00:35:59;15.70;99.80
40516;DHT22;26216;53.724;9.898;2022-10-16T00:38:25;15.70;99.80
40516;DHT22;26216;53.724;9.898;2022-10-16T00:40:51;15.70;99.80
40516;DHT22;26216;53.724;9.898;2022-10-16T00:46:01;15.60;99.90
40516;DHT22;26216;53.724;9.898;2022-10-16T00:48:27;15.70;99.90
40516;DHT22;26216;53.724;9.898;2022-10-16T00:50:53;15.70;99.90
40516;DHT22;26216;53.724;9.898;2022-10-16T00:53:19;15.70;99.90
40516;DHT22;26216;53.724;9.898;2022-10-16T00:55:46;15.70;99.90
40516;DHT22;26216;53.724;9.898;2022-10-16T00:58:12;15.70;99.90
40516;DHT22;26216;53.724;9.898;2022-10-16T01:00:38;15.60;99.90
40516;DHT22;26216;53.724;9.898;2022-10-16T01:03:27;15.60;99.90
40516;DHT22;26216;53.724;9.898;2022-10-16T01:06:19;15.70;99.90
40516;DHT22;26216;53.724;9.898;2022-10-16T01:09:02;15.70;99.90
40516;DHT22;26216;53.724;9.898;2022-10-16T01:11:37;15.70;99.80
40516;DHT22;26216;53.724;9.898;2022-10-16T01:14:15;15.70;99.80
40516;DHT22;26216;53.724;9.898;2022-10-16T01:17:06;15.60;99.70
40516;DHT22;26216;53.724;9.898;2022-10-16T01:20:00;15.60;99.70
40516;DHT22;26216;53.724;9.898;2022-10-16T01:22:37;15.70;99.70
40516;DHT22;26216;53.724;9.898;2022-10-16T01:25:09;15.60;99.50
40516;DHT22;26216;53.724;9.898;2022-10-16T01:27:40;15.60;99.50
40516;DHT22;26216;53.724;9.898;2022-10-16T01:30:21;15.60;99.40
40516;DHT22;26216;53.724;9.898;2022-10-16T01:33:01;15.60;99.40
40516;DHT22;26216;53.724;9.898;2022-10-16T01:35:38;15.60;99.40
40516;DHT22;26216;53.724;9.898;2022-10-16T01:38:13;15.50;99.30
40516;DHT22;26216;53.724;9.898;2022-10-16T01:40:46;15.50;99.30
40516;DHT22;26216;53.724;9.898;2022-10-16T01:43:17;15.60;99.30
40516;DHT22;26216;53.724;9.898;2022-10-16T01:45:45;15.50;99.20
40516;DHT22;26216;53.724;9.898;2022-10-16T01:48:17;15.50;99.20
40516;DHT22;26216;53.724;9.898;2022-10-16T01:51:03;15.50;99.20
40516;DHT22;26216;53.724;9.898;2022-10-16T01:53:31;15.50;99.20
40516;DHT22;26216;53.724;9.898;2022-10-16T01:55:59;15.40;99.10
40516;DHT22;26216;53.724;9.898;2022-10-16T01:58:27;15.40;99.10
40516;DHT22;26216;53.724;9.898;2022-10-16T02:00:56;15.40;99.10
40516;DHT22;26216;53.724;9.898;2022-10-16T02:03:22;15.40;99.10
40516;DHT22;26216;53.724;9.898;2022-10-16T02:05:54;15.30;99.00
40516;DHT22;26216;53.724;9.898;2022-10-16T02:08:25;15.30;99.00
40516;DHT22;26216;53.724;9.898;2022-10-16T02:10:55;15.30;99.00
40516;DHT22;26216;53.724;9.898;2022-10-16T02:13:28;15.30;99.00
40516;DHT22;26216;53.724;9.898;2022-10-16T02:15:54;15.20;99.00
40516;DHT22;26216;53.724;9.898;2022-10-16T02:18:20;15.20;99.00
40516;DHT22;26216;53.724;9.898;2022-10-16T02:21:00;15.20;99.00
40516;DHT22;26216;53.724;9.898;2022-10-16T02:26:04;15.10;99.10
40516;DHT22;26216;53.724;9.898;2022-10-16T02:28:39;15.10;99.00
40516;DHT22;26216;53.724;9.898;2022-10-16T02:31:08;15.10;99.10
40516;DHT22;26216;53.724;9.898;2022-10-16T02:33:36;15.10;99.10
40516;DHT22;26216;53.724;9.898;2022-10-16T02:36:03;15.10;99.10
40516;DHT22;26216;53.724;9.898;2022-10-16T02:38:29;15.00;99.00
40516;DHT22;26216;53.724;9.898;2022-10-16T02:40:56;15.00;99.00
40516;DHT22;26216;53.724;9.898;2022-10-16T02:43:22;15.00;99.00
40516;DHT22;26216;53.724;9.898;2022-10-16T02:45:48;15.00;99.10
40516;DHT22;26216;53.724;9.898;2022-10-16T02:48:13;15.00;99.10
40516;DHT22;26216;53.724;9.898;2022-10-16T02:50:40;15.00;99.10
40516;DHT22;26216;53.724;9.898;2022-10-16T02:53:06;15.00;99.10
40516;DHT22;26216;53.724;9.898;2022-10-16T02:55:31;14.90;99.30
40516;DHT22;26216;53.724;9.898;2022-10-16T02:57:58;14.90;99.00
40516;DHT22;26216;53.724;9.898;2022-10-16T03:00:23;14.90;99.00
40516;DHT22;26216;53.724;9.898;2022-10-16T03:02:50;14.90;99.00
40516;DHT22;26216;53.724;9.898;2022-10-16T03:05:16;14.90;99.00
40516;DHT22;26216;53.724;9.898;2022-10-16T03:07:42;14.80;99.00
40516;DHT22;26216;53.724;9.898;2022-10-16T03:10:08;14.80;99.00
40516;DHT22;26216;53.724;9.898;2022-10-16T03:12:34;14.80;98.90
40516;DHT22;26216;53.724;9.898;2022-10-16T03:15:00;14.70;98.90
40516;DHT22;26216;53.724;9.898;2022-10-16T03:17:26;14.70;98.90
40516;DHT22;26216;53.724;9.898;2022-10-16T03:19:52;14.70;98.90
40516;DHT22;26216;53.724;9.898;2022-10-16T03:22:17;14.70;98.90
40516;DHT22;26216;53.724;9.898;2022-10-16T03:24:43;14.70;98.90
40516;DHT22;26216;53.724;9.898;2022-10-16T03:27:09;14.70;98.90
40516;DHT22;26216;53.724;9.898;2022-10-16T03:29:35;14.60;98.90
40516;DHT22;26216;53.724;9.898;2022-10-16T03:32:01;14.60;98.90
40516;DHT22;26216;53.724;9.898;2022-10-16T03:34:27;14.60;98.90
40516;DHT22;26216;53.724;9.898;2022-10-16T03:36:53;14.60;99.00
40516;DHT22;26216;53.724;9.898;2022-10-16T03:39:19;14.60;99.00
40516;DHT22;26216;53.724;9.898;2022-10-16T03:41:45;14.50;98.90
40516;DHT22;26216;53.724;9.898;2022-10-16T03:44:12;14.50;99.00
40516;DHT22;26216;53.724;9.898;2022-10-16T03:46:38;14.50;99.00
40516;DHT22;26216;53.724;9.898;2022-10-16T03:49:03;14.50;99.00
40516;DHT22;26216;53.724;9.898;2022-10-16T03:51:29;14.50;99.00
40516;DHT22;26216;53.724;9.898;2022-10-16T03:53:55;14.50;99.00
40516;DHT22;26216;53.724;9.898;2022-10-16T03:56:21;14.50;99.00
40516;DHT22;26216;53.724;9.898;2022-10-16T03:58:47;14.50;99.00
40516;DHT22;26216;53.724;9.898;2022-10-16T04:01:13;14.40;99.10
40516;DHT22;26216;53.724;9.898;2022-10-16T04:03:39;14.40;99.10
40516;DHT22;26216;53.724;9.898;2022-10-16T04:06:05;14.40;99.10
40516;DHT22;26216;53.724;9.898;2022-10-16T04:08:31;14.40;99.10
40516;DHT22;26216;53.724;9.898;2022-10-16T04:11:00;14.40;99.10
40516;DHT22;26216;53.724;9.898;2022-10-16T04:13:27;14.40;99.10
40516;DHT22;26216;53.724;9.898;2022-10-16T04:15:52;14.40;99.10
40516;DHT22;26216;53.724;9.898;2022-10-16T04:18:18;14.40;99.10
40516;DHT22;26216;53.724;9.898;2022-10-16T04:20:44;14.40;99.10
40516;DHT22;26216;53.724;9.898;2022-10-16T04:23:10;14.40;99.10
40516;DHT22;26216;53.724;9.898;2022-10-16T04:25:36;14.40;99.10
40516;DHT22;26216;53.724;9.898;2022-10-16T04:28:02;14.40;99.10
40516;DHT22;26216;53.724;9.898;2022-10-16T04:30:27;14.40;99.20
40516;DHT22;26216;53.724;9.898;2022-10-16T04:32:53;14.30;99.10
40516;DHT22;26216;53.724;9.898;2022-10-16T04:35:22;14.30;99.20
40516;DHT22;26216;53.724;9.898;2022-10-16T04:37:48;14.30;99.20
40516;DHT22;26216;53.724;9.898;2022-10-16T04:40:14;14.30;99.20
40516;DHT22;26216;53.724;9.898;2022-10-16T04:42:41;14.30;99.20
40516;DHT22;26216;53.724;9.898;2022-10-16T04:45:07;14.30;99.20
40516;DHT22;26216;53.724;9.898;2022-10-16T04:47:33;14.30;99.20
40516;DHT22;26216;53.724;9.898;2022-10-16T04:49:59;14.30;99.20
40516;DHT22;26216;53.724;9.898;2022-10-16T04:52:26;14.30;99.20
40516;DHT22;26216;53.724;9.898;2022-10-16T04:54:52;14.30;99.30
40516;DHT22;26216;53.724;9.898;2022-10-16T04:57:19;14.30;99.30
40516;DHT22;26216;53.724;9.898;2022-10-16T04:59:45;14.30;99.30
40516;DHT22;26216;53.724;9.898;2022-10-16T05:02:11;14.30;99.30
40516;DHT22;26216;53.724;9.898;2022-10-16T05:04:36;14.30;99.30
40516;DHT22;26216;53.724;9.898;2022-10-16T05:07:02;14.30;99.40
40516;DHT22;26216;53.724;9.898;2022-10-16T05:09:28;14.30;99.40
40516;DHT22;26216;53.724;9.898;2022-10-16T05:11:54;14.30;99.40
40516;DHT22;26216;53.724;9.898;2022-10-16T05:14:20;14.30;99.50
40516;DHT22;26216;53.724;9.898;2022-10-16T05:16:45;14.30;99.50
40516;DHT22;26216;53.724;9.898;2022-10-16T05:19:13;14.40;99.50
40516;DHT22;26216;53.724;9.898;2022-10-16T05:21:39;14.30;99.50
40516;DHT22;26216;53.724;9.898;2022-10-16T05:24:05;14.40;99.50
40516;DHT22;26216;53.724;9.898;2022-10-16T05:26:30;14.40;99.50
40516;DHT22;26216;53.724;9.898;2022-10-16T05:28:56;14.40;99.50
40516;DHT22;26216;53.724;9.898;2022-10-16T05:31:22;14.40;99.50
40516;DHT22;26216;53.724;9.898;2022-10-16T05:33:48;14.40;99.50
40516;DHT22;26216;53.724;9.898;2022-10-16T05:36:14;14.40;99.80
40516;DHT22;26216;53.724;9.898;2022-10-16T05:38:40;14.50;99.60
40516;DHT22;26216;53.724;9.898;2022-10-16T05:41:06;14.50;99.60
40516;DHT22;26216;53.724;9.898;2022-10-16T05:43:32;14.50;99.60
40516;DHT22;26216;53.724;9.898;2022-10-16T05:46:00;14.50;99.60
40516;DHT22;26216;53.724;9.898;2022-10-16T05:48:26;14.50;99.60
40516;DHT22;26216;53.724;9.898;2022-10-16T05:50:59;14.50;99.60
40516;DHT22;26216;53.724;9.898;2022-10-16T05:53:27;14.50;99.60
40516;DHT22;26216;53.724;9.898;2022-10-16T05:55:56;14.50;99.60
40516;DHT22;26216;53.724;9.898;2022-10-16T05:58:22;14.50;99.50
40516;DHT22;26216;53.724;9.898;2022-10-16T06:00:56;14.50;99.50
40516;DHT22;26216;53.724;9.898;2022-10-16T06:03:22;14.60;99.50
40516;DHT22;26216;53.724;9.898;2022-10-16T06:05:49;14.50;99.50
40516;DHT22;26216;53.724;9.898;2022-10-16T06:08:15;14.50;99.50
40516;DHT22;26216;53.724;9.898;2022-10-16T06:10:41;14.60;99.50
40516;DHT22;26216;53.724;9.898;2022-10-16T06:13:07;14.50;99.50
40516;DHT22;26216;53.724;9.898;2022-10-16T06:15:33;14.50;99.50
40516;DHT22;26216;53.724;9.898;2022-10-16T06:17:58;14.50;99.50
40516;DHT22;26216;53.724;9.898;2022-10-16T06:20:24;14.60;99.50
40516;DHT22;26216;53.724;9.898;2022-10-16T06:22:50;14.60;99.60
40516;DHT22;26216;53.724;9.898;2022-10-16T06:25:16;14.50;99.50
40516;DHT22;26216;53.724;9.898;2022-10-16T06:27:41;14.50;99.50
40516;DHT22;26216;53.724;9.898;2022-10-16T06:30:08;14.60;99.60
40516;DHT22;26216;53.724;9.898;2022-10-16T06:32:35;14.60;99.70
40516;DHT22;26216;53.724;9.898;2022-10-16T06:35:01;14.50;99.60
40516;DHT22;26216;53.724;9.898;2022-10-16T06:37:27;14.60;99.70
40516;DHT22;26216;53.724;9.898;2022-10-16T06:39:53;14.60;99.70
40516;DHT22;26216;53.724;9.898;2022-10-16T06:42:19;14.60;99.80
40516;DHT22;26216;53.724;9.898;2022-10-16T06:44:45;14.60;99.80
40516;DHT22;26216;53.724;9.898;2022-10-16T06:47:11;14.60;99.80
40516;DHT22;26216;53.724;9.898;2022-10-16T06:49:37;14.70;99.90
40516;DHT22;26216;53.724;9.898;2022-10-16T06:52:03;14.70;99.90
40516;DHT22;26216;53.724;9.898;2022-10-16T06:54:29;14.70;99.90
40516;DHT22;26216;53.724;9.898;2022-10-16T06:56:55;14.70;99.90
40516;DHT22;26216;53.724;9.898;2022-10-16T06:59:21;14.80;99.90
40516;DHT22;26216;53.724;9.898;2022-10-16T07:01:47;14.80;99.90
40516;DHT22;26216;53.724;9.898;2022-10-16T07:04:13;14.80;99.90
40516;DHT22;26216;53.724;9.898;2022-10-16T07:06:39;14.90;99.90
40516;DHT22;26216;53.724;9.898;2022-10-16T07:09:08;14.90;99.90
40516;DHT22;26216;53.724;9.898;2022-10-16T07:11:35;15.00;99.90
40516;DHT22;26216;53.724;9.898;2022-10-16T07:14:02;15.00;99.90
40516;DHT22;26216;53.724;9.898;2022-10-16T07:16:30;15.00;99.90
40516;DHT22;26216;53.724;9.898;2022-10-16T07:18:59;15.10;99.90
40516;DHT22;26216;53.724;9.898;2022-10-16T07:21:27;15.20;99.90
40516;DHT22;26216;53.724;9.898;2022-10-16T07:23:56;15.20;99.90
40516;DHT22;26216;53.724;9.898;2022-10-16T07:26:24;15.30;99.90
40516;DHT22;26216;53.724;9.898;2022-10-16T07:28:50;15.40;99.90
40516;DHT22;26216;53.724;9.898;2022-10-16T07:31:17;15.40;99.90
40516;DHT22;26216;53.724;9.898;2022-10-16T07:33:48;15.40;99.90
40516;DHT22;26216;53.724;9.898;2022-10-16T07:36:15;15.50;99.90
40516;DHT22;26216;53.724;9.898;2022-10-16T07:38:42;15.60;99.90
40516;DHT22;26216;53.724;9.898;2022-10-16T07:41:10;15.60;99.90
40516;DHT22;26216;53.724;9.898;2022-10-16T07:43:37;15.70;99.90
40516;DHT22;26216;53.724;9.898;2022-10-16T07:46:02;15.70;99.90
40516;DHT22;26216;53.724;9.898;2022-10-16T07:48:30;15.70;99.90
40516;DHT22;26216;53.724;9.898;2022-10-16T07:51:02;15.80;99.90
40516;DHT22;26216;53.724;9.898;2022-10-16T07:53:28;15.80;99.90
40516;DHT22;26216;53.724;9.898;2022-10-16T07:55:58;15.90;99.90
40516;DHT22;26216;53.724;9.898;2022-10-16T07:58:24;15.90;99.90
40516;DHT22;26216;53.724;9.898;2022-10-16T08:00:53;15.90;99.90
40516;DHT22;26216;53.724;9.898;2022-10-16T08:03:19;15.90;99.90
40516;DHT22;26216;53.724;9.898;2022-10-16T08:05:45;15.90;99.80
40516;DHT22;26216;53.724;9.898;2022-10-16T08:08:15;15.90;99.80
40516;DHT22;26216;53.724;9.898;2022-10-16T08:10:41;15.90;99.80
40516;DHT22;26216;53.724;9.898;2022-10-16T08:13:07;15.90;99.80
40516;DHT22;26216;53.724;9.898;2022-10-16T08:15:33;16.00;99.90
40516;DHT22;26216;53.724;9.898;2022-10-16T08:18:03;16.00;99.90
40516;DHT22;26216;53.724;9.898;2022-10-16T08:20:31;16.00;99.90
40516;DHT22;26216;53.724;9.898;2022-10-16T08:22:57;16.10;99.90
40516;DHT22;26216;53.724;9.898;2022-10-16T08:25:25;16.10;99.90
40516;DHT22;26216;53.724;9.898;2022-10-16T08:27:51;16.10;99.90
40516;DHT22;26216;53.724;9.898;2022-10-16T08:30:18;16.10;99.90
40516;DHT22;26216;53.724;9.898;2022-10-16T08:32:44;16.20;99.90
40516;DHT22;26216;53.724;9.898;2022-10-16T08:35:11;16.20;99.90
40516;DHT22;26216;53.724;9.898;2022-10-16T08:37:38;16.20;99.90
40516;DHT22;26216;53.724;9.898;2022-10-16T08:40:06;16.30;99.90
40516;DHT22;26216;53.724;9.898;2022-10-16T08:48:05;16.40;99.90
40516;DHT22;26216;53.724;9.898;2022-10-16T08:50:38;16.50;99.90
40516;DHT22;26216;53.724;9.898;2022-10-16T08:53:05;16.50;99.90
40516;DHT22;26216;53.724;9.898;2022-10-16T08:55:50;16.60;99.90
40516;DHT22;26216;53.724;9.898;2022-10-16T08:58:18;16.80;99.90
40516;DHT22;26216;53.724;9.898;2022-10-16T09:00:51;16.90;99.90
40516;DHT22;26216;53.724;9.898;2022-10-16T09:11:17;17.40;99.90
40516;DHT22;26216;53.724;9.898;2022-10-16T09:13:56;17.40;99.30
40516;DHT22;26216;53.724;9.898;2022-10-16T09:16:39;17.50;99.20
40516;DHT22;26216;53.724;9.898;2022-10-16T09:19:17;17.60;99.30
40516;DHT22;26216;53.724;9.898;2022-10-16T09:21:46;17.60;98.90
40516;DHT22;26216;53.724;9.898;2022-10-16T09:24:19;17.70;98.40
40516;DHT22;26216;53.724;9.898;2022-10-16T09:26:46;17.70;98.40
40516;DHT22;26216;53.724;9.898;2022-10-16T09:29:15;17.70;98.20
40516;DHT22;26216;53.724;9.898;2022-10-16T09:31:42;17.80;98.40
40516;DHT22;26216;53.724;9.898;2022-10-16T09:34:32;17.80;98.40
40516;DHT22;26216;53.724;9.898;2022-10-16T09:36:59;17.80;98.20
40516;DHT22;26216;53.724;9.898;2022-10-16T09:39:28;17.90;97.80
40516;DHT22;26216;53.724;9.898;2022-10-16T09:41:55;17.90;97.70
40516;DHT22;26216;53.724;9.898;2022-10-16T09:44:26;17.90;97.70
40516;DHT22;26216;53.724;9.898;2022-10-16T09:47:28;18.00;98.00
40516;DHT22;26216;53.724;9.898;2022-10-16T09:49:56;18.00;98.10
40516;DHT22;26216;53.724;9.898;2022-10-16T09:52:24;18.10;97.60
40516;DHT22;26216;53.724;9.898;2022-10-16T09:54:55;18.10;97.40
40516;DHT22;26216;53.724;9.898;2022-10-16T09:57:22;18.20;97.50
40516;DHT22;26216;53.724;9.898;2022-10-16T09:59:49;18.20;97.60
40516;DHT22;26216;53.724;9.898;2022-10-16T10:02:35;18.30;97.50
40516;DHT22;26216;53.724;9.898;2022-10-16T10:05:02;18.40;97.40
40516;DHT22;26216;53.724;9.898;2022-10-16T10:07:37;18.40;97.70
40516;DHT22;26216;53.724;9.898;2022-10-16T10:10:18;18.60;97.70
40516;DHT22;26216;53.724;9.898;2022-10-16T10:12:45;18.60;97.00
40516;DHT22;26216;53.724;9.898;2022-10-16T10:15:12;18.70;97.10
40516;DHT22;26216;53.724;9.898;2022-10-16T10:17:52;18.80;97.10
40516;DHT22;26216;53.724;9.898;2022-10-16T10:20:28;18.90;96.70
40516;DHT22;26216;53.724;9.898;2022-10-16T10:22:55;18.90;96.50
40516;DHT22;26216;53.724;9.898;2022-10-16T10:31:29;19.10;96.30
40516;DHT22;26216;53.724;9.898;2022-10-16T10:36:59;19.20;95.90
40516;DHT22;26216;53.724;9.898;2022-10-16T10:39:38;19.20;95.80
40516;DHT22;26216;53.724;9.898;2022-10-16T10:42:25;19.30;95.70
40516;DHT22;26216;53.724;9.898;2022-10-16T10:45:11;19.30;95.80
40516;DHT22;26216;53.724;9.898;2022-10-16T10:48:05;19.40;95.50
40516;DHT22;26216;53.724;9.898;2022-10-16T10:53:47;19.50;95.40
40516;DHT22;26216;53.724;9.898;2022-10-16T10:57:03;19.50;94.90
40516;DHT22;26216;53.724;9.898;2022-10-16T11:02:45;19.60;95.30
40516;DHT22;26216;53.724;9.898;2022-10-16T11:08:11;19.70;94.50
40516;DHT22;26216;53.724;9.898;2022-10-16T11:11:02;19.80;94.50
40516;DHT22;26216;53.724;9.898;2022-10-16T11:16:27;19.90;94.50
40516;DHT22;26216;53.724;9.898;2022-10-16T11:19:04;20.00;94.50
40516;DHT22;26216;53.724;9.898;2022-10-16T11:21:47;20.00;94.10
40516;DHT22;26216;53.724;9.898;2022-10-16T11:27:31;20.10;93.10
40516;DHT22;26216;53.724;9.898;2022-10-16T11:30:02;20.20;94.00
40516;DHT22;26216;53.724;9.898;2022-10-16T11:32:35;20.20;93.80
40516;DHT22;26216;53.724;9.898;2022-10-16T11:35:17;20.20;93.30
40516;DHT22;26216;53.724;9.898;2022-10-16T11:37:46;20.20;93.50
40516;DHT22;26216;53.724;9.898;2022-10-16T11:40:55;20.20;93.80
40516;DHT22;26216;53.724;9.898;2022-10-16T11:44:18;20.20;93.00
40516;DHT22;26216;53.724;9.898;2022-10-16T11:46:24;20.20;91.80
40516;DHT22;26216;53.724;9.898;2022-10-16T11:49:03;20.20;92.00
40516;DHT22;26216;53.724;9.898;2022-10-16T11:51:48;20.20;91.90
40516;DHT22;26216;53.724;9.898;2022-10-16T11:54:45;20.20;92.20
40516;DHT22;26216;53.724;9.898;2022-10-16T11:57:35;20.20;91.30
40516;DHT22;26216;53.724;9.898;2022-10-16T12:03:18;20.10;91.60
40516;DHT22;26216;53.724;9.898;2022-10-16T12:08:37;20.10;90.70
40516;DHT22;26216;53.724;9.898;2022-10-16T12:11:37;20.00;91.10
40516;DHT22;26216;53.724;9.898;2022-10-16T12:19:32;19.80;90.30
40516;DHT22;26216;53.724;9.898;2022-10-16T12:22:00;19.70;90.30
40516;DHT22;26216;53.724;9.898;2022-10-16T12:24:44;19.60;90.70
40516;DHT22;26216;53.724;9.898;2022-10-16T12:27:32;19.70;91.10
40516;DHT22;26216;53.724;9.898;2022-10-16T12:30:00;19.60;91.30
40516;DHT22;26216;53.724;9.898;2022-10-16T12:32:31;19.60;91.60
40516;DHT22;26216;53.724;9.898;2022-10-16T12:35:02;19.60;91.70
40516;DHT22;26216;53.724;9.898;2022-10-16T12:37:36;19.70;91.80
40516;DHT22;26216;53.724;9.898;2022-10-16T12:42:50;19.80;90.60
40516;DHT22;26216;53.724;9.898;2022-10-16T12:45:27;19.80;90.20
40516;DHT22;26216;53.724;9.898;2022-10-16T12:47:56;19.80;90.60
40516;DHT22;26216;53.724;9.898;2022-10-16T12:53:00;19.90;91.20
40516;DHT22;26216;53.724;9.898;2022-10-16T12:55:35;20.00;91.40
40516;DHT22;26216;53.724;9.898;2022-10-16T12:58:09;20.00;90.50
40516;DHT22;26216;53.724;9.898;2022-10-16T13:00:45;20.10;90.70
40516;DHT22;26216;53.724;9.898;2022-10-16T13:05:55;20.10;88.60
40516;DHT22;26216;53.724;9.898;2022-10-16T13:08:50;20.20;87.90
40516;DHT22;26216;53.724;9.898;2022-10-16T13:19:33;20.20;86.30
40516;DHT22;26216;53.724;9.898;2022-10-16T13:25:06;20.10;86.70
40516;DHT22;26216;53.724;9.898;2022-10-16T13:30:23;20.00;85.50
40516;DHT22;26216;53.724;9.898;2022-10-16T13:32:58;19.90;85.20
40516;DHT22;26216;53.724;9.898;2022-10-16T13:35:27;19.80;85.90
40516;DHT22;26216;53.724;9.898;2022-10-16T13:38:17;19.80;86.30
40516;DHT22;26216;53.724;9.898;2022-10-16T13:41:16;19.80;85.30
40516;DHT22;26216;53.724;9.898;2022-10-16T13:43:43;19.70;84.80
40516;DHT22;26216;53.724;9.898;2022-10-16T13:46:15;19.70;87.00
40516;DHT22;26216;53.724;9.898;2022-10-16T13:48:41;19.70;86.80
40516;DHT22;26216;53.724;9.898;2022-10-16T13:53:39;19.70;87.10
40516;DHT22;26216;53.724;9.898;2022-10-16T13:56:15;19.70;86.90
40516;DHT22;26216;53.724;9.898;2022-10-16T13:58:41;19.70;87.60
40516;DHT22;26216;53.724;9.898;2022-10-16T14:01:24;19.70;87.80
40516;DHT22;26216;53.724;9.898;2022-10-16T14:03:52;19.70;88.40
40516;DHT22;26216;53.724;9.898;2022-10-16T14:06:22;19.70;89.00
40516;DHT22;26216;53.724;9.898;2022-10-16T14:11:28;19.80;88.20
40516;DHT22;26216;53.724;9.898;2022-10-16T14:13:55;19.80;88.00
40516;DHT22;26216;53.724;9.898;2022-10-16T14:16:27;19.80;87.90
40516;DHT22;26216;53.724;9.898;2022-10-16T14:19:00;19.90;85.20
40516;DHT22;26216;53.724;9.898;2022-10-16T14:21:28;19.80;86.10
40516;DHT22;26216;53.724;9.898;2022-10-16T14:23:54;19.80;86.80
40516;DHT22;26216;53.724;9.898;2022-10-16T14:26:27;19.80;86.30
40516;DHT22;26216;53.724;9.898;2022-10-16T14:29:14;19.80;85.90
40516;DHT22;26216;53.724;9.898;2022-10-16T14:31:41;19.70;86.00
40516;DHT22;26216;53.724;9.898;2022-10-16T14:34:52;19.70;86.50
40516;DHT22;26216;53.724;9.898;2022-10-16T14:37:27;19.80;87.20
40516;DHT22;26216;53.724;9.898;2022-10-16T14:39:54;19.70;86.80
40516;DHT22;26216;53.724;9.898;2022-10-16T14:42:23;19.70;87.10
40516;DHT22;26216;53.724;9.898;2022-10-16T14:44:53;19.70;87.10
40516;DHT22;26216;53.724;9.898;2022-10-16T14:47:23;19.70;86.50
40516;DHT22;26216;53.724;9.898;2022-10-16T14:49:55;19.60;86.80
40516;DHT22;26216;53.724;9.898;2022-10-16T14:52:23;19.60;87.10
40516;DHT22;26216;53.724;9.898;2022-10-16T14:54:50;19.60;86.80
40516;DHT22;26216;53.724;9.898;2022-10-16T14:57:32;19.60;87.20
40516;DHT22;26216;53.724;9.898;2022-10-16T14:59:59;19.50;85.60
40516;DHT22;26216;53.724;9.898;2022-10-16T15:02:29;19.50;86.30
40516;DHT22;26216;53.724;9.898;2022-10-16T15:04:57;19.40;86.10
40516;DHT22;26216;53.724;9.898;2022-10-16T15:07:24;19.40;86.60
40516;DHT22;26216;53.724;9.898;2022-10-16T15:09:50;19.40;86.60
40516;DHT22;26216;53.724;9.898;2022-10-16T15:12:17;19.30;86.30
40516;DHT22;26216;53.724;9.898;2022-10-16T15:14:43;19.30;86.90
40516;DHT22;26216;53.724;9.898;2022-10-16T15:17:12;19.30;86.70
40516;DHT22;26216;53.724;9.898;2022-10-16T15:19:38;19.20;86.90
40516;DHT22;26216;53.724;9.898;2022-10-16T15:22:04;19.20;87.20
40516;DHT22;26216;53.724;9.898;2022-10-16T15:24:32;19.20;87.50
40516;DHT22;26216;53.724;9.898;2022-10-16T15:26:57;19.10;86.30
40516;DHT22;26216;53.724;9.898;2022-10-16T15:29:23;19.10;86.40
40516;DHT22;26216;53.724;9.898;2022-10-16T15:31:50;19.00;87.00
40516;DHT22;26216;53.724;9.898;2022-10-16T15:34:16;19.00;86.90
40516;DHT22;26216;53.724;9.898;2022-10-16T15:36:43;18.90;87.20
40516;DHT22;26216;53.724;9.898;2022-10-16T15:39:15;18.90;87.40
40516;DHT22;26216;53.724;9.898;2022-10-16T15:41:42;18.80;87.60
40516;DHT22;26216;53.724;9.898;2022-10-16T15:44:09;18.70;87.60
40516;DHT22;26216;53.724;9.898;2022-10-16T15:46:35;18.70;87.80
40516;DHT22;26216;53.724;9.898;2022-10-16T15:49:03;18.60;87.80
40516;DHT22;26216;53.724;9.898;2022-10-16T15:51:29;18.60;87.80
40516;DHT22;26216;53.724;9.898;2022-10-16T15:53:59;18.50;87.80
40516;DHT22;26216;53.724;9.898;2022-10-16T15:56:27;18.40;88.00
40516;DHT22;26216;53.724;9.898;2022-10-16T15:58:54;18.40;88.20
40516;DHT22;26216;53.724;9.898;2022-10-16T16:01:21;18.30;88.40
40516;DHT22;26216;53.724;9.898;2022-10-16T16:03:47;18.20;88.50
40516;DHT22;26216;53.724;9.898;2022-10-16T16:06:14;18.20;88.60
40516;DHT22;26216;53.724;9.898;2022-10-16T16:08:41;18.10;88.70
40516;DHT22;26216;53.724;9.898;2022-10-16T16:11:10;18.00;88.80
40516;DHT22;26216;53.724;9.898;2022-10-16T16:13:36;17.90;89.00
40516;DHT22;26216;53.724;9.898;2022-10-16T16:16:09;17.90;89.10
40516;DHT22;26216;53.724;9.898;2022-10-16T16:18:36;17.80;89.20
40516;DHT22;26216;53.724;9.898;2022-10-16T16:21:03;17.70;89.30
40516;DHT22;26216;53.724;9.898;2022-10-16T16:23:30;17.60;89.40
40516;DHT22;26216;53.724;9.898;2022-10-16T16:26:13;17.50;89.40
40516;DHT22;26216;53.724;9.898;2022-10-16T16:28:41;17.40;89.60
40516;DHT22;26216;53.724;9.898;2022-10-16T16:31:08;17.30;89.60
40516;DHT22;26216;53.724;9.898;2022-10-16T16:33:35;17.20;89.70
40516;DHT22;26216;53.724;9.898;2022-10-16T16:36:03;17.20;89.80
40516;DHT22;26216;53.724;9.898;2022-10-16T16:38:30;17.10;89.90
40516;DHT22;26216;53.724;9.898;2022-10-16T16:40:58;17.00;90.00
40516;DHT22;26216;53.724;9.898;2022-10-16T16:43:26;16.90;90.00
40516;DHT22;26216;53.724;9.898;2022-10-16T16:45:53;16.80;90.10
40516;DHT22;26216;53.724;9.898;2022-10-16T16:48:20;16.70;90.10
40516;DHT22;26216;53.724;9.898;2022-10-16T16:50:46;16.60;90.20
40516;DHT22;26216;53.724;9.898;2022-10-16T16:53:12;16.50;90.20
40516;DHT22;26216;53.724;9.898;2022-10-16T16:55:38;16.50;90.30
40516;DHT22;26216;53.724;9.898;2022-10-16T16:58:04;16.40;90.40
40516;DHT22;26216;53.724;9.898;2022-10-16T17:00:31;16.30;90.50
40516;DHT22;26216;53.724;9.898;2022-10-16T17:02:57;16.20;90.50
40516;DHT22;26216;53.724;9.898;2022-10-16T17:05:23;16.20;90.60
40516;DHT22;26216;53.724;9.898;2022-10-16T17:07:49;16.20;90.60
40516;DHT22;26216;53.724;9.898;2022-10-16T17:10:15;16.10;90.70